createdAt,value
2023-01-29T00:00:35.485Z,101148.50
2023-01-29T00:03:43.029Z,101261.06
2023-01-29T00:07:03.493Z,101259.63
2023-01-29T00:10:08.618Z,101263.25
2023-01-29T00:13:13.122Z,101257.78
2023-01-29T00:16:18.145Z,101258.44
2023-01-29T00:19:24.710Z,101243.22
2023-01-29T00:22:37.539Z,101256.75
2023-01-29T00:25:50.063Z,101257.34
2023-01-29T00:29:02.170Z,101199.94
2023-01-29T00:32:13.891Z,101258.00
2023-01-29T00:35:27.676Z,101257.03
2023-01-29T00:38:32.458Z,101215.00
2023-01-29T00:42:05.908Z,101262.63
2023-01-29T00:45:39.517Z,101258.72
2023-01-29T00:48:46.875Z,101256.00
2023-01-29T00:52:10.690Z,101249.84
2023-01-29T00:55:17.597Z,101244.06
2023-01-29T00:58:28.939Z,101251.03
2023-01-29T01:01:51.662Z,101238.34
2023-01-29T01:04:56.135Z,101225.53
2023-01-29T01:08:00.515Z,101235.94
2023-01-29T01:11:07.440Z,101221.13
2023-01-29T01:14:12.003Z,101217.84
2023-01-29T01:17:19.244Z,101197.91
2023-01-29T01:20:24.512Z,101212.56
2023-01-29T01:23:28.986Z,101221.03
2023-01-29T01:26:34.326Z,101213.75
2023-01-29T01:29:39.901Z,101217.34
2023-01-29T01:32:44.869Z,101195.28
2023-01-29T01:35:49.882Z,101209.59
2023-01-29T01:38:55.086Z,101182.50
2023-01-29T01:41:59.635Z,101210.13
2023-01-29T01:45:08.800Z,101204.91
2023-01-29T01:48:27.300Z,101210.84
2023-01-29T01:51:39.272Z,101173.81
2023-01-29T01:54:44.106Z,101191.72
2023-01-29T01:57:56.871Z,101161.84
2023-01-29T02:01:02.762Z,101181.06
2023-01-29T02:04:29.966Z,101188.06
2023-01-29T02:07:53.271Z,101170.59
2023-01-29T02:10:59.235Z,101171.56
2023-01-29T02:14:07.276Z,101172.03
2023-01-29T02:17:18.844Z,101178.09
2023-01-29T02:20:31.331Z,101121.25
2023-01-29T02:24:07.548Z,101143.09
2023-01-29T02:27:49.121Z,101162.00
2023-01-29T02:31:07.900Z,101155.75
2023-01-29T02:34:30.159Z,101141.81
2023-01-29T02:37:51.071Z,101154.69
2023-01-29T02:41:23.343Z,101148.72
2023-01-29T02:44:58.337Z,101148.50
2023-01-29T02:48:05.233Z,101136.63
2023-01-29T02:51:27.558Z,101123.06
2023-01-29T02:54:47.409Z,101077.00
2023-01-29T02:57:57.283Z,101135.44
2023-01-29T03:01:43.178Z,101107.19
2023-01-29T03:05:01.307Z,101116.31
2023-01-29T03:08:12.457Z,101086.94
2023-01-29T03:11:30.911Z,101126.59
2023-01-29T03:15:17.394Z,101125.94
2023-01-29T03:18:47.131Z,101122.94
2023-01-29T03:22:00.617Z,101057.13
2023-01-29T03:25:28.038Z,101130.19
2023-01-29T03:28:51.968Z,101122.69
2023-01-29T03:32:06.713Z,101116.31
2023-01-29T03:35:36.512Z,101122.84
2023-01-29T03:39:08.416Z,101093.31
2023-01-29T03:42:31.160Z,101048.50
2023-01-29T03:46:05.045Z,100985.94
2023-01-29T03:49:28.086Z,101105.28
2023-01-29T03:53:07.786Z,101114.56
2023-01-29T03:56:41.839Z,101072.38
2023-01-29T04:00:16.440Z,101089.72
2023-01-29T04:04:04.900Z,101061.25
2023-01-29T04:07:16.499Z,101078.94
2023-01-29T04:10:26.124Z,101026.91
2023-01-29T04:13:34.566Z,101073.97
2023-01-29T04:16:43.566Z,101081.34
2023-01-29T04:19:51.287Z,101090.66
2023-01-29T04:22:55.780Z,101050.22
2023-01-29T04:26:12.788Z,101073.25
2023-01-29T04:29:41.720Z,101086.66
2023-01-29T04:33:11.453Z,101083.84
2023-01-29T04:36:32.197Z,101097.66
2023-01-29T04:40:15.043Z,101088.22
2023-01-29T04:43:49.232Z,101063.50
2023-01-29T04:47:19.041Z,101085.75
2023-01-29T04:50:26.043Z,101076.91
2023-01-29T04:53:59.446Z,101075.31
2023-01-29T04:57:39.813Z,101078.59
2023-01-29T05:00:57.929Z,101071.63
2023-01-29T05:04:12.280Z,101047.03
2023-01-29T05:07:25.861Z,101059.38
2023-01-29T05:10:39.136Z,101067.31
2023-01-29T05:13:46.719Z,101065.81
2023-01-29T05:16:58.442Z,101059.41
2023-01-29T05:20:05.891Z,101062.69
2023-01-29T05:23:26.447Z,101058.19
2023-01-29T05:26:58.601Z,101006.63
2023-01-29T05:30:08.655Z,101046.41
2023-01-29T05:33:16.579Z,101055.50
2023-01-29T05:36:34.163Z,101001.09
2023-01-29T05:39:38.628Z,101041.66
2023-01-29T05:42:43.320Z,101045.22
2023-01-29T05:46:01.087Z,101048.28
2023-01-29T05:49:11.898Z,101052.28
2023-01-29T05:52:19.041Z,101035.59
2023-01-29T05:55:26.249Z,101011.78
2023-01-29T05:58:32.904Z,101041.44
2023-01-29T06:01:40.351Z,100999.28
2023-01-29T06:04:48.018Z,101047.00
2023-01-29T06:07:53.152Z,101031.50
2023-01-29T06:11:04.023Z,101051.44
2023-01-29T06:14:08.139Z,101033.25
2023-01-29T06:17:12.396Z,101015.38
2023-01-29T06:20:16.768Z,100993.38
2023-01-29T06:23:21.306Z,101035.25
2023-01-29T06:26:25.804Z,101028.38
2023-01-29T06:29:30.356Z,101077.44
2023-01-29T06:32:35.827Z,101002.91
2023-01-29T06:35:40.525Z,101077.13
2023-01-29T06:38:45.203Z,101017.53
2023-01-29T06:41:50.699Z,101044.06
2023-01-29T06:44:58.793Z,101080.56
2023-01-29T06:48:03.047Z,101086.66
2023-01-29T06:51:30.710Z,101091.16
2023-01-29T06:54:38.419Z,101080.56
2023-01-29T06:57:42.577Z,101052.25
2023-01-29T07:00:47.258Z,101084.00
2023-01-29T07:03:52.727Z,101062.06
2023-01-29T07:06:57.216Z,101089.66
2023-01-29T07:10:01.799Z,101088.69
2023-01-29T07:13:07.633Z,101079.59
2023-01-29T07:16:11.755Z,101093.44
2023-01-29T07:19:16.504Z,101058.00
2023-01-29T07:22:20.877Z,101098.09
2023-01-29T07:25:26.254Z,101083.47
2023-01-29T07:28:30.975Z,101105.75
2023-01-29T07:31:35.798Z,101078.28
2023-01-29T07:34:40.018Z,101105.22
2023-01-29T07:37:43.894Z,101101.50
2023-01-29T07:40:48.622Z,101109.19
2023-01-29T07:43:53.269Z,101102.97
2023-01-29T07:46:57.659Z,101102.53
2023-01-29T07:50:02.431Z,101110.13
2023-01-29T07:53:06.478Z,101107.66
2023-01-29T07:56:11.112Z,101110.34
2023-01-29T07:59:15.746Z,101116.25
2023-01-29T08:02:20.473Z,101100.88
2023-01-29T08:05:25.135Z,101130.25
2023-01-29T08:08:29.382Z,101127.94
2023-01-29T08:11:33.948Z,101126.72
2023-01-29T08:14:38.597Z,101131.94
2023-01-29T08:17:57.188Z,101129.09
2023-01-29T08:21:07.455Z,101115.06
2023-01-29T08:24:11.934Z,101079.16
2023-01-29T08:27:16.542Z,101128.91
2023-01-29T08:30:21.298Z,101094.53
2023-01-29T08:33:38.390Z,101131.44
2023-01-29T08:36:43.340Z,101142.47
2023-01-29T08:39:48.975Z,101141.13
2023-01-29T08:42:53.704Z,101120.94
2023-01-29T08:45:58.369Z,101116.78
2023-01-29T08:49:03.206Z,101081.97
2023-01-29T08:52:10.194Z,101144.34
2023-01-29T08:55:15.734Z,101145.13
2023-01-29T08:58:20.752Z,101134.63
2023-01-29T09:01:29.252Z,101146.03
2023-01-29T09:04:33.735Z,101121.63
2023-01-29T09:07:38.382Z,101120.94
2023-01-29T09:10:46.135Z,101129.13
2023-01-29T09:13:51.719Z,101164.44
2023-01-29T09:16:56.416Z,101157.75
2023-01-29T09:20:02.574Z,101132.44
2023-01-29T09:23:09.830Z,101172.75
2023-01-29T09:26:15.077Z,101174.31
2023-01-29T09:29:19.438Z,101168.31
2023-01-29T09:32:52.136Z,101179.34
2023-01-29T09:35:48.736Z,101158.69
2023-01-29T09:38:53.208Z,101148.59
2023-01-29T09:42:13.975Z,101175.75
2023-01-29T09:45:25.685Z,101170.22
2023-01-29T09:48:34.707Z,101189.06
2023-01-29T09:51:43.405Z,101191.56
2023-01-29T09:55:05.976Z,101202.88
2023-01-29T09:58:18.415Z,101207.25
2023-01-29T10:01:46.074Z,101203.63
2023-01-29T10:05:04.532Z,101205.03
2023-01-29T10:08:46.917Z,101213.34
2023-01-29T10:12:09.387Z,101204.09
2023-01-29T10:15:24.521Z,101206.63
2023-01-29T10:18:29.114Z,101157.47
2023-01-29T10:21:41.368Z,101194.34
2023-01-29T10:24:58.594Z,101208.22
2023-01-29T10:28:03.131Z,101194.97
2023-01-29T10:31:15.928Z,101170.84
2023-01-29T10:34:31.511Z,101198.56
2023-01-29T10:37:44.418Z,101168.72
2023-01-29T10:41:05.942Z,101156.53
2023-01-29T10:44:22.885Z,101194.88
2023-01-29T10:48:11.461Z,101193.50
2023-01-29T10:51:34.931Z,101159.34
2023-01-29T10:54:55.665Z,101205.06
2023-01-29T10:58:35.700Z,101187.53
2023-01-29T11:01:41.877Z,101145.34
2023-01-29T11:04:46.353Z,101186.47
2023-01-29T11:08:06.327Z,101184.19
2023-01-29T11:11:23.083Z,101169.69
2023-01-29T11:14:36.182Z,101197.72
2023-01-29T11:18:14.383Z,101178.75
2023-01-29T11:21:20.085Z,101175.34
2023-01-29T11:24:25.642Z,101175.66
2023-01-29T11:27:34.755Z,101158.75
2023-01-29T11:30:42.304Z,101192.81
2023-01-29T11:33:49.215Z,101188.03
2023-01-29T11:37:06.323Z,101150.16
2023-01-29T11:40:21.640Z,101186.88
2023-01-29T11:43:31.996Z,101181.38
2023-01-29T11:46:41.131Z,101193.47
2023-01-29T11:49:55.941Z,101136.28
2023-01-29T11:53:04.193Z,101164.53
2023-01-29T11:56:41.808Z,101170.28
2023-01-29T11:59:53.112Z,101115.25
2023-01-29T12:03:14.306Z,101180.50
2023-01-29T12:06:26.021Z,101168.00
2023-01-29T12:09:34.077Z,101173.88
2023-01-29T12:12:49.883Z,101155.53
2023-01-29T12:16:20.909Z,101156.66
2023-01-29T12:19:52.158Z,101180.16
2023-01-29T12:23:13.204Z,101178.38
2023-01-29T12:26:25.055Z,101185.31
2023-01-29T12:29:58.152Z,101186.66
2023-01-29T12:33:37.280Z,101188.19
2023-01-29T12:37:00.203Z,101163.16
2023-01-29T12:40:17.012Z,101121.34
2023-01-29T12:43:32.582Z,101176.72
2023-01-29T12:46:51.394Z,101172.44
2023-01-29T12:50:03.167Z,101173.94
2023-01-29T12:53:24.969Z,101176.38
2023-01-29T12:56:44.697Z,101175.25
2023-01-29T13:00:04.175Z,101170.88
2023-01-29T13:03:45.944Z,101187.06
2023-01-29T13:07:00.140Z,101178.28
2023-01-29T13:10:17.115Z,101174.28
2023-01-29T13:13:35.989Z,101200.59
2023-01-29T13:16:48.830Z,101199.50
2023-01-29T13:20:00.580Z,101198.25
2023-01-29T13:23:48.020Z,101180.69
2023-01-29T13:26:55.317Z,101187.16
2023-01-29T13:30:04.450Z,101090.34
2023-01-29T13:33:11.730Z,101187.97
2023-01-29T13:36:25.613Z,101176.72
2023-01-29T13:39:40.004Z,101172.06
2023-01-29T13:42:49.343Z,101184.09
2023-01-29T13:45:55.972Z,101185.28
2023-01-29T13:49:05.654Z,101164.78
2023-01-29T13:52:29.113Z,101173.63
2023-01-29T13:55:41.268Z,101109.88
2023-01-29T13:58:47.943Z,101198.97
2023-01-29T14:01:54.047Z,101203.50
2023-01-29T14:05:31.074Z,101197.94
2023-01-29T14:08:45.790Z,101141.97
2023-01-29T14:11:52.474Z,101136.28
2023-01-29T14:14:56.176Z,101190.34
2023-01-29T14:18:07.148Z,101192.16
2023-01-29T14:21:15.305Z,101195.88
2023-01-29T14:24:25.878Z,101190.50
2023-01-29T14:27:32.488Z,101184.25
2023-01-29T14:30:38.941Z,101192.84
2023-01-29T14:33:43.557Z,101150.28
2023-01-29T14:36:56.280Z,101184.22
2023-01-29T14:40:37.656Z,101174.41
2023-01-29T14:43:43.857Z,101184.03
2023-01-29T14:46:54.450Z,101121.69
2023-01-29T14:50:10.982Z,101119.38
2023-01-29T14:53:28.778Z,101131.16
2023-01-29T14:56:45.519Z,101157.41
2023-01-29T15:00:00.058Z,101168.88
2023-01-29T15:03:34.296Z,101160.78
2023-01-29T15:07:06.181Z,101129.09
2023-01-29T15:10:24.540Z,101154.84
2023-01-29T15:13:42.869Z,101145.56
2023-01-29T15:16:51.853Z,101157.31
2023-01-29T15:19:58.450Z,101163.81
2023-01-29T15:23:24.813Z,101127.19
2023-01-29T15:26:31.322Z,101118.59
2023-01-29T15:29:40.185Z,101160.38
2023-01-29T15:32:47.328Z,101154.38
2023-01-29T15:36:08.210Z,101140.56
2023-01-29T15:39:23.305Z,101111.00
2023-01-29T15:42:42.677Z,101146.25
2023-01-29T15:45:49.403Z,101112.91
2023-01-29T15:48:57.987Z,101155.81
2023-01-29T15:52:36.922Z,101142.88
2023-01-29T15:55:43.848Z,101167.28
2023-01-29T15:58:51.592Z,101135.91
2023-01-29T16:01:57.735Z,101128.75
2023-01-29T16:05:06.515Z,101160.81
2023-01-29T16:08:17.983Z,101117.06
2023-01-29T16:11:23.868Z,101168.25
2023-01-29T16:14:31.203Z,101064.88
2023-01-29T16:17:41.990Z,101176.81
2023-01-29T16:20:53.124Z,101162.72
2023-01-29T16:24:10.397Z,101160.38
2023-01-29T16:27:17.508Z,101070.34
2023-01-29T16:30:25.734Z,101131.94
2023-01-29T16:33:39.431Z,101179.72
2023-01-29T16:36:49.308Z,101149.59
2023-01-29T16:39:54.221Z,101146.56
2023-01-29T16:43:31.336Z,101157.06
2023-01-29T16:46:48.128Z,101096.22
2023-01-29T16:50:01.381Z,101089.53
2023-01-29T16:53:24.243Z,101093.75
2023-01-29T16:56:33.186Z,101143.19
2023-01-29T16:59:40.987Z,101163.13
2023-01-29T17:02:44.971Z,101133.63
2023-01-29T17:05:57.041Z,101161.63
2023-01-29T17:09:04.559Z,101153.31
2023-01-29T17:12:20.520Z,101174.41
2023-01-29T17:15:45.089Z,101167.38
2023-01-29T17:18:51.282Z,101175.03
2023-01-29T17:22:00.866Z,101149.03
2023-01-29T17:25:12.036Z,101182.47
2023-01-29T17:28:19.190Z,101180.59
2023-01-29T17:31:25.186Z,101179.78
2023-01-29T17:34:30.738Z,101193.09
2023-01-29T17:37:36.660Z,101166.91
2023-01-29T17:40:48.555Z,101195.00
2023-01-29T17:43:56.397Z,101180.94
2023-01-29T17:47:00.480Z,101160.94
2023-01-29T17:50:31.393Z,101185.94
2023-01-29T17:53:45.211Z,101190.78
2023-01-29T17:56:53.225Z,101183.84
2023-01-29T17:59:58.697Z,101146.00
2023-01-29T18:03:04.931Z,101138.66
2023-01-29T18:06:12.586Z,101180.09
2023-01-29T18:09:23.629Z,101136.44
2023-01-29T18:12:29.169Z,101169.25
2023-01-29T18:15:35.723Z,101101.84
2023-01-29T18:18:41.761Z,101120.47
2023-01-29T18:21:47.763Z,101135.69
2023-01-29T18:24:53.661Z,101124.31
2023-01-29T18:27:59.695Z,101069.53
2023-01-29T18:31:06.476Z,101183.28
2023-01-29T18:34:12.536Z,101146.81
2023-01-29T18:37:18.475Z,101190.34
2023-01-29T18:40:24.314Z,101109.63
2023-01-29T18:43:30.253Z,101158.94
2023-01-29T18:46:35.013Z,101146.31
2023-01-29T18:49:39.938Z,101143.44
2023-01-29T18:52:46.319Z,101071.25
2023-01-29T18:56:00.472Z,101090.19
2023-01-29T18:59:06.731Z,101134.38
2023-01-29T19:02:15.701Z,101092.00
2023-01-29T19:05:26.521Z,101127.00
2023-01-29T19:08:32.351Z,101127.47
2023-01-29T19:11:39.022Z,101123.16
2023-01-29T19:14:45.076Z,101100.44
2023-01-29T19:17:52.239Z,101104.06
2023-01-29T19:21:04.377Z,101065.59
2023-01-29T19:24:11.055Z,101095.06
2023-01-29T19:27:16.537Z,101068.97
2023-01-29T19:30:22.596Z,101081.56
2023-01-29T19:33:30.716Z,101105.91
2023-01-29T19:36:38.718Z,101129.25
2023-01-29T19:39:44.200Z,101126.03
2023-01-29T19:42:50.219Z,101108.75
2023-01-29T19:45:59.896Z,101121.22
2023-01-29T19:49:07.628Z,101141.97
2023-01-29T19:52:50.333Z,100782.84
2023-01-29T19:56:05.537Z,101092.19
2023-01-29T19:59:20.189Z,101138.78
2023-01-29T20:02:33.770Z,101117.06
2023-01-29T20:06:02.614Z,101121.25
2023-01-29T20:09:11.170Z,101117.47
2023-01-29T20:12:18.488Z,101093.84
2023-01-29T20:15:26.885Z,101124.84
2023-01-29T20:18:32.913Z,101090.34
2023-01-29T20:21:50.151Z,101111.28
2023-01-29T20:24:55.795Z,101115.13
2023-01-29T20:28:10.475Z,101132.00
2023-01-29T20:31:17.227Z,100868.56
2023-01-29T20:34:24.932Z,101127.25
2023-01-29T20:37:32.779Z,101125.94
2023-01-29T20:40:42.037Z,101093.09
2023-01-29T20:43:51.223Z,101124.88
2023-01-29T20:47:06.437Z,101120.81
2023-01-29T20:50:13.639Z,101091.97
2023-01-29T20:53:22.051Z,101080.22
2023-01-29T20:56:41.363Z,101111.13
2023-01-29T20:59:51.731Z,101115.63
2023-01-29T21:02:57.221Z,101086.78
2023-01-29T21:06:03.287Z,101133.22
2023-01-29T21:09:11.873Z,101132.28
2023-01-29T21:12:20.723Z,101060.84
2023-01-29T21:15:28.024Z,101107.25
2023-01-29T21:18:34.475Z,101136.13
2023-01-29T21:21:44.335Z,101040.09
2023-01-29T21:24:52.890Z,101137.03
2023-01-29T21:28:03.078Z,101128.00
2023-01-29T21:31:23.060Z,101092.59
2023-01-29T21:34:42.672Z,101132.97
2023-01-29T21:37:56.189Z,101095.94
2023-01-29T21:41:05.730Z,101147.44
2023-01-29T21:44:11.890Z,101140.19
2023-01-29T21:47:17.653Z,101127.06
2023-01-29T21:50:30.983Z,101147.31
2023-01-29T21:53:38.048Z,101112.84
2023-01-29T21:56:57.850Z,101125.63
2023-01-29T22:00:03.797Z,101109.91
2023-01-29T22:03:09.811Z,101117.38
2023-01-29T22:06:15.693Z,101145.34
2023-01-29T22:09:22.224Z,101150.75
2023-01-29T22:12:28.071Z,101136.75
2023-01-29T22:15:34.213Z,101192.19
2023-01-29T22:18:39.674Z,101144.66
2023-01-29T22:21:45.965Z,101157.03
2023-01-29T22:24:53.203Z,101129.97
2023-01-29T22:28:00.405Z,101196.94
2023-01-29T22:31:05.737Z,101202.25
2023-01-29T22:34:15.725Z,101204.09
2023-01-29T22:37:19.459Z,101207.72
2023-01-29T22:40:27.533Z,101197.94
2023-01-29T22:43:31.417Z,101123.00
2023-01-29T22:46:39.311Z,101133.34
2023-01-29T22:49:43.034Z,101188.84
2023-01-29T22:52:56.549Z,101080.38
2023-01-29T22:56:01.171Z,101190.25
2023-01-29T22:59:07.713Z,101170.44
2023-01-29T23:02:12.379Z,101213.47
2023-01-29T23:05:18.740Z,101205.16
2023-01-29T23:08:24.269Z,101188.91
2023-01-29T23:11:30.176Z,101213.19
2023-01-29T23:14:36.514Z,101213.00
2023-01-29T23:17:42.447Z,101209.59
2023-01-29T23:20:46.231Z,101213.22
2023-01-29T23:23:56.160Z,101209.31
2023-01-29T23:27:18.087Z,101215.78
2023-01-29T23:30:26.500Z,101176.94
2023-01-29T23:33:32.015Z,101192.84
2023-01-29T23:36:37.918Z,101212.75
2023-01-29T23:39:43.280Z,101190.84
2023-01-29T23:42:51.590Z,101211.78
2023-01-29T23:46:01.439Z,101223.00
2023-01-29T23:49:08.100Z,101183.41
2023-01-29T23:52:13.506Z,101198.81
2023-01-29T23:55:19.445Z,101177.63
2023-01-29T23:58:23.299Z,101203.78
